Time;durP1;ratioP1;P1;durP2;ratioP2;P2;SDS_P1;SDS_P2;PMS_P1;PMS_P2;Temp;Humidity;BMP_temperature;BMP_pressure;BME280_temperature;BME280_humidity;BME280_pressure;Samples;Min_cycle;Max_cycle;Signal;HPM_P1;HPM_P2
2021/03/12 00:01:12;;;;;;;24.45;15.43;;;;;;;;;;4993385;28;20481;-60
2021/03/12 00:03:38;;;;;;;24.35;15.13;;;;;;;;;;4993011;28;20172;-59
2021/03/12 00:06:10;;;;;;;25.45;14.15;;;;;;;;;;4993409;28;20159;-60
2021/03/12 00:08:44;;;;;;;22.17;14.68;;;;;;;;;;4992074;28;20042;-60
2021/03/12 00:11:09;;;;;;;25.73;14.43;;;;;;;;;;4993265;28;20057;-59
2021/03/12 00:13:41;;;;;;;27.23;14.75;;;;;;;;;;4993185;28;20438;-59
2021/03/12 00:16:06;;;;;;;20.23;14.15;;;;;;;;;;4993242;28;20026;-59
2021/03/12 00:18:34;;;;;;;19.42;14.30;;;;;;;;;;4993257;28;20109;-59
2021/03/12 00:21:00;;;;;;;22.58;13.70;;;;;;;;;;5024712;28;20117;-59
2021/03/12 00:23:25;;;;;;;23.17;14.38;;;;;;;;;;4993100;28;20026;-59
2021/03/12 00:25:51;;;;;;;23.25;13.93;;;;;;;;;;4992752;28;20179;-60
2021/03/12 00:28:17;;;;;;;20.92;13.50;;;;;;;;;;4993120;28;20059;-60
2021/03/12 00:30:44;;;;;;;21.27;12.50;;;;;;;;;;4993021;28;20432;-59
2021/03/12 00:33:09;;;;;;;17.80;12.35;;;;;;;;;;4992719;28;20019;-59
2021/03/12 00:35:41;;;;;;;22.10;13.35;;;;;;;;;;4992787;28;20035;-60
2021/03/12 00:38:06;;;;;;;20.00;13.50;;;;;;;;;;5007988;28;20033;-59
2021/03/12 00:40:52;;;;;;;18.92;11.98;;;;;;;;;;4992843;28;20018;-60
2021/03/12 00:43:19;;;;;;;17.52;10.00;;;;;;;;;;4991320;28;20042;-60
2021/03/12 00:45:46;;;;;;;17.60;11.30;;;;;;;;;;5024336;28;20019;-60
2021/03/12 00:48:16;;;;;;;18.77;11.13;;;;;;;;;;5024155;28;20040;-59
2021/03/12 00:50:42;;;;;;;19.45;11.43;;;;;;;;;;5007783;28;20121;-59
2021/03/12 00:53:11;;;;;;;17.00;11.00;;;;;;;;;;5007697;28;20031;-60
2021/03/12 00:55:36;;;;;;;14.65;9.95;;;;;;;;;;4992724;28;20041;-59
2021/03/12 00:58:02;;;;;;;15.43;9.05;;;;;;;;;;5007501;28;20023;-60
2021/03/12 01:00:29;;;;;;;14.25;10.27;;;;;;;;;;5007538;28;20018;-60
2021/03/12 01:02:59;;;;;;;15.60;10.23;;;;;;;;;;5007300;28;20098;-61
2021/03/12 01:05:25;;;;;;;17.60;10.40;;;;;;;;;;4992402;28;20109;-61
2021/03/12 01:07:51;;;;;;;14.65;10.07;;;;;;;;;;5007532;28;20026;-60
2021/03/12 01:10:21;;;;;;;;;;;;;;;;;;5007875;28;20374;-59
2021/03/12 01:12:47;;;;;;;11.43;8.65;;;;;;;;;;4992249;28;19910;-60
2021/03/12 01:15:15;;;;;;;10.10;8.27;;;;;;;;;;4992356;28;20022;-60
2021/03/12 01:17:40;;;;;;;14.38;9.73;;;;;;;;;;4992229;28;20078;-59
2021/03/12 01:20:14;;;;;;;14.85;9.75;;;;;;;;;;5007258;28;20466;-59
2021/03/12 01:22:40;;;;;;;12.93;9.23;;;;;;;;;;5023623;28;20027;-58
2021/03/12 01:25:10;;;;;;;12.15;9.07;;;;;;;;;;4974842;28;20026;-58
2021/03/12 01:27:38;;;;;;;14.25;10.23;;;;;;;;;;4992034;28;20037;-59
2021/03/12 01:30:09;;;;;;;12.25;8.82;;;;;;;;;;5007149;28;20389;-60
2021/03/12 01:32:34;;;;;;;11.45;8.77;;;;;;;;;;4990800;28;20397;-59
2021/03/12 01:35:00;;;;;;;10.77;8.05;;;;;;;;;;5007021;28;20030;-60
2021/03/12 01:37:32;;;;;;;13.10;9.57;;;;;;;;;;4989841;28;20109;-60
2021/03/12 01:40:01;;;;;;;11.45;8.57;;;;;;;;;;4991999;28;20252;-60
2021/03/12 01:42:32;;;;;;;11.75;8.77;;;;;;;;;;5006897;28;20022;-60
2021/03/12 01:44:58;;;;;;;11.68;8.85;;;;;;;;;;4990592;28;20083;-60
2021/03/12 01:47:23;;;;;;;10.57;8.30;;;;;;;;;;5006692;28;20046;-59
2021/03/12 01:49:49;;;;;;;11.93;8.98;;;;;;;;;;5006791;28;20034;-59
2021/03/12 01:52:15;;;;;;;13.75;10.73;;;;;;;;;;4990466;28;20095;-59
2021/03/12 01:54:40;;;;;;;12.82;9.18;;;;;;;;;;5022975;28;20034;-59
2021/03/12 01:57:11;;;;;;;10.75;9.40;;;;;;;;;;5006746;28;20030;-59
2021/03/12 01:59:58;;;;;;;12.50;10.32;;;;;;;;;;5006254;28;20038;-59
2021/03/12 02:02:41;;;;;;;10.50;9.02;;;;;;;;;;4991867;28;20077;-59
2021/03/12 02:05:21;;;;;;;10.23;9.02;;;;;;;;;;5006662;28;20031;-58
2021/03/12 02:07:48;;;;;;;14.07;11.32;;;;;;;;;;5006671;28;20053;-58
2021/03/12 02:10:27;;;;;;;13.02;10.52;;;;;;;;;;4990362;28;20026;-58
2021/03/12 02:12:55;;;;;;;11.10;9.25;;;;;;;;;;4991304;28;20034;-58
2021/03/12 02:15:29;;;;;;;14.70;11.27;;;;;;;;;;4990001;28;20019;-58
2021/03/12 02:18:15;;;;;;;16.25;11.45;;;;;;;;;;4990162;28;20075;-59
2021/03/12 02:20:42;;;;;;;10.65;9.15;;;;;;;;;;4990290;28;20027;-60
2021/03/12 02:23:22;;;;;;;13.65;10.13;;;;;;;;;;4990131;28;20029;-59
2021/03/12 02:25:51;;;;;;;11.73;8.95;;;;;;;;;;5022764;28;20057;-60
2021/03/12 02:28:18;;;;;;;12.25;8.82;;;;;;;;;;5006310;28;20107;-60
2021/03/12 02:30:44;;;;;;;11.95;9.60;;;;;;;;;;5006220;28;20489;-60
2021/03/12 02:33:10;;;;;;;12.75;8.75;;;;;;;;;;5006061;28;20068;-60
2021/03/12 02:35:41;;;;;;;10.60;8.13;;;;;;;;;;5006190;28;20075;-60
2021/03/12 02:38:26;;;;;;;9.73;6.88;;;;;;;;;;5006290;28;20172;-60
2021/03/12 02:40:56;;;;;;;9.75;7.55;;;;;;;;;;5006145;28;20030;-59
2021/03/12 02:43:22;;;;;;;9.07;6.70;;;;;;;;;;4973608;28;20038;-59
2021/03/12 02:45:48;;;;;;;7.00;5.00;;;;;;;;;;4989701;28;20041;-60
2021/03/12 02:48:20;;;;;;;8.32;7.07;;;;;;;;;;5005772;28;20022;-60
2021/03/12 02:50:46;;;;;;;9.15;6.93;;;;;;;;;;5005938;28;20042;-60
2021/03/12 02:53:18;;;;;;;11.02;6.55;;;;;;;;;;4990436;28;20083;-60
2021/03/12 02:55:47;;;;;;;8.52;7.07;;;;;;;;;;4989529;28;20080;-59
2021/03/12 02:58:17;;;;;;;7.68;6.18;;;;;;;;;;5005903;28;20385;-59
2021/03/12 03:00:43;;;;;;;7.70;6.47;;;;;;;;;;4972793;28;20027;-60
2021/03/12 03:03:27;;;;;;;8.90;7.15;;;;;;;;;;5023446;28;20395;-60
2021/03/12 03:06:15;;;;;;;7.88;6.05;;;;;;;;;;4986837;28;20042;-60
2021/03/12 03:08:42;;;;;;;9.48;7.57;;;;;;;;;;4990863;28;20684;-60
2021/03/12 03:11:11;;;;;;;6.85;5.50;;;;;;;;;;5005742;28;20022;-59
2021/03/12 03:13:37;;;;;;;7.50;5.90;;;;;;;;;;5005817;28;20038;-59
2021/03/12 03:16:06;;;;;;;7.40;5.57;;;;;;;;;;5005628;28;20362;-60
2021/03/12 03:18:37;;;;;;;6.40;5.55;;;;;;;;;;5005634;28;20087;-59
2021/03/12 03:21:03;;;;;;;8.00;6.45;;;;;;;;;;5005729;28;20033;-59
2021/03/12 03:23:29;;;;;;;8.25;5.65;;;;;;;;;;5005788;28;20490;-60
2021/03/12 03:25:55;;;;;;;6.93;5.43;;;;;;;;;;4989573;28;20076;-59
2021/03/12 03:28:27;;;;;;;7.97;6.35;;;;;;;;;;4990768;28;20109;-60
2021/03/12 03:30:53;;;;;;;4.57;4.07;;;;;;;;;;5005713;28;20038;-60
2021/03/12 03:33:19;;;;;;;7.45;5.20;;;;;;;;;;5005472;28;20026;-59
2021/03/12 03:35:44;;;;;;;6.50;5.65;;;;;;;;;;5005549;28;20027;-60
2021/03/12 03:38:10;;;;;;;6.07;5.10;;;;;;;;;;4990484;28;20022;-59
2021/03/12 03:40:36;;;;;;;7.40;5.95;;;;;;;;;;4990509;28;20541;-59
2021/03/12 03:43:03;;;;;;;6.45;5.80;;;;;;;;;;5005443;28;20026;-59
2021/03/12 03:45:29;;;;;;;7.38;5.82;;;;;;;;;;5005350;28;20030;-60
2021/03/12 03:48:02;;;;;;;7.18;5.60;;;;;;;;;;5005441;28;20029;-60
2021/03/12 03:50:27;;;;;;;8.18;5.75;;;;;;;;;;5021650;28;20464;-60
2021/03/12 03:52:53;;;;;;;6.78;5.90;;;;;;;;;;4990260;28;20015;-59
2021/03/12 03:55:21;;;;;;;6.35;5.13;;;;;;;;;;5005298;28;20033;-59
2021/03/12 03:57:47;;;;;;;6.13;5.50;;;;;;;;;;4990120;28;20437;-59
2021/03/12 04:00:15;;;;;;;7.10;6.32;;;;;;;;;;5005107;28;20065;-60
2021/03/12 04:02:49;;;;;;;6.97;5.35;;;;;;;;;;5025024;28;20026;-59
2021/03/12 04:05:21;;;;;;;8.90;6.40;;;;;;;;;;5008332;28;20077;-59
2021/03/12 04:07:54;;;;;;;9.23;7.90;;;;;;;;;;5008397;28;20042;-60
2021/03/12 04:10:20;;;;;;;8.82;7.25;;;;;;;;;;5008396;28;20027;-59
2021/03/12 04:12:47;;;;;;;7.93;6.47;;;;;;;;;;5008579;28;20010;-59
2021/03/12 04:15:15;;;;;;;10.55;7.38;;;;;;;;;;4992059;28;20026;-59
2021/03/12 04:17:41;;;;;;;9.18;6.72;;;;;;;;;;5008293;28;20057;-59
2021/03/12 04:20:07;;;;;;;11.02;6.88;;;;;;;;;;4975830;28;20050;-59
2021/03/12 04:22:33;;;;;;;8.77;7.80;;;;;;;;;;5008188;28;20110;-59
2021/03/12 04:25:01;;;;;;;7.00;5.35;;;;;;;;;;5008214;28;20034;-60
2021/03/12 04:27:26;;;;;;;8.02;6.65;;;;;;;;;;4993295;28;20477;-60
2021/03/12 04:29:52;;;;;;;11.73;6.85;;;;;;;;;;4993004;28;20037;-59
2021/03/12 04:32:18;;;;;;;8.02;5.97;;;;;;;;;;5007984;28;20022;-60
2021/03/12 04:34:44;;;;;;;10.98;7.35;;;;;;;;;;5007917;28;20126;-59
2021/03/12 04:37:12;;;;;;;9.15;6.68;;;;;;;;;;5008019;28;20406;-59
2021/03/12 04:39:39;;;;;;;8.80;6.28;;;;;;;;;;4992896;28;20037;-59
2021/03/12 04:42:05;;;;;;;9.27;6.88;;;;;;;;;;5007979;28;20022;-59
2021/03/12 04:44:32;;;;;;;8.02;6.40;;;;;;;;;;5007628;28;20030;-60
2021/03/12 04:46:57;;;;;;;9.07;7.38;;;;;;;;;;4992805;28;20030;-59
2021/03/12 04:49:24;;;;;;;8.00;6.32;;;;;;;;;;5007913;28;20117;-59
2021/03/12 04:51:51;;;;;;;9.75;7.38;;;;;;;;;;4992891;28;20025;-60
2021/03/12 04:54:18;;;;;;;9.48;6.75;;;;;;;;;;4991324;28;20034;-59
2021/03/12 04:56:44;;;;;;;11.55;9.45;;;;;;;;;;5007639;28;20397;-60
2021/03/12 04:59:11;;;;;;;13.93;9.52;;;;;;;;;;4992526;28;20022;-59
2021/03/12 05:01:41;;;;;;;14.73;10.25;;;;;;;;;;5007541;28;20412;-59
2021/03/12 05:04:07;;;;;;;10.65;8.38;;;;;;;;;;5023493;28;20038;-60
2021/03/12 05:06:33;;;;;;;11.63;9.63;;;;;;;;;;5007658;28;20042;-60
2021/03/12 05:09:12;;;;;;;15.00;10.35;;;;;;;;;;5007568;28;20554;-60
2021/03/12 05:11:44;;;;;;;10.23;7.43;;;;;;;;;;5007488;28;20516;-59
2021/03/12 05:14:23;;;;;;;11.00;8.52;;;;;;;;;;5007372;28;20031;-59
2021/03/12 05:16:50;;;;;;;11.93;9.95;;;;;;;;;;4992317;28;20501;-59
2021/03/12 05:19:18;;;;;;;11.82;9.45;;;;;;;;;;5007317;28;20560;-59
2021/03/12 05:21:47;;;;;;;12.52;9.68;;;;;;;;;;4990935;28;20485;-60
2021/03/12 05:24:17;;;;;;;13.55;9.98;;;;;;;;;;5007297;28;20023;-60
2021/03/12 05:26:44;;;;;;;18.25;13.27;;;;;;;;;;4990844;28;20506;-60
2021/03/12 05:29:12;;;;;;;55.45;27.42;;;;;;;;;;4990931;28;20025;-60
2021/03/12 05:31:38;;;;;;;96.32;42.75;;;;;;;;;;5007101;28;20031;-60
2021/03/12 05:34:03;;;;;;;87.18;39.38;;;;;;;;;;5023469;28;20477;-60
2021/03/12 05:36:30;;;;;;;83.00;36.20;;;;;;;;;;5006958;28;20029;-60
2021/03/12 05:38:57;;;;;;;33.17;17.88;;;;;;;;;;5006945;28;20014;-60
2021/03/12 05:41:25;;;;;;;30.23;16.48;;;;;;;;;;4990541;28;20038;-60
2021/03/12 05:43:52;;;;;;;18.98;10.27;;;;;;;;;;4990518;28;20027;-59
2021/03/12 05:46:18;;;;;;;28.23;13.82;;;;;;;;;;4990504;28;20064;-59
2021/03/12 05:48:44;;;;;;;24.90;12.95;;;;;;;;;;4991807;28;20050;-59
2021/03/12 05:51:13;;;;;;;33.17;17.58;;;;;;;;;;4990742;28;20563;-59
2021/03/12 05:53:39;;;;;;;37.97;20.10;;;;;;;;;;4991367;28;20018;-59
2021/03/12 05:56:10;;;;;;;34.03;17.58;;;;;;;;;;5006221;28;20030;-59
2021/03/12 05:58:51;;;;;;;23.05;14.00;;;;;;;;;;4990543;28;20046;-59
2021/03/12 06:01:16;;;;;;;15.48;10.93;;;;;;;;;;5006470;28;20543;-60
2021/03/12 06:03:43;;;;;;;18.08;11.18;;;;;;;;;;5006236;28;20022;-60
2021/03/12 06:06:09;;;;;;;18.15;12.93;;;;;;;;;;5006571;28;20043;-59
2021/03/12 06:08:37;;;;;;;12.82;9.32;;;;;;;;;;4990302;28;20044;-59
2021/03/12 06:11:04;;;;;;;17.70;12.40;;;;;;;;;;5006649;28;20117;-60
2021/03/12 06:13:53;;;;;;;15.52;9.38;;;;;;;;;;5006586;28;20457;-59
2021/03/12 06:16:49;;;;;;;11.55;7.80;;;;;;;;;;5003812;28;20034;-62
2021/03/12 06:19:17;;;;;;;11.90;8.95;;;;;;;;;;4990087;28;20031;-60
2021/03/12 06:21:46;;;;;;;14.18;9.70;;;;;;;;;;4990099;28;20049;-60
2021/03/12 06:24:21;;;;;;;11.20;8.95;;;;;;;;;;4990905;28;20030;-60
2021/03/12 06:26:48;;;;;;;13.88;9.82;;;;;;;;;;4989953;28;20084;-59
2021/03/12 06:29:30;;;;;;;14.85;10.10;;;;;;;;;;5006409;28;20026;-59
2021/03/12 06:32:06;;;;;;;14.63;10.20;;;;;;;;;;5022861;28;20034;-60
2021/03/12 06:35:00;;;;;;;13.20;8.93;;;;;;;;;;4991369;28;20557;-59
2021/03/12 06:37:49;;;;;;;12.02;7.82;;;;;;;;;;4991413;28;20051;-59
2021/03/12 06:40:29;;;;;;;7.75;6.13;;;;;;;;;;5006486;28;20468;-60
2021/03/12 06:43:15;;;;;;;13.35;9.35;;;;;;;;;;5006482;28;20393;-60
2021/03/12 06:45:47;;;;;;;2.60;2.00;;;;;;;;;;4989949;28;20030;-60
2021/03/12 06:48:12;;;;;;;9.07;6.38;;;;;;;;;;4989757;28;20030;-60
2021/03/12 06:50:48;;;;;;;5.90;4.63;;;;;;;;;;4989644;28;20457;-60
2021/03/12 06:53:24;;;;;;;9.30;6.75;;;;;;;;;;5005872;28;20042;-60
2021/03/12 06:55:51;;;;;;;12.50;8.00;;;;;;;;;;4989696;28;20057;-60
2021/03/12 06:58:31;;;;;;;;;;;;;;;;;;5006494;28;20029;-60
2021/03/12 07:01:20;;;;;;;10.68;7.13;;;;;;;;;;4989694;28;19910;-60
2021/03/12 07:04:10;;;;;;;9.75;6.07;;;;;;;;;;5005678;28;20366;-60
2021/03/12 07:07:11;;;;;;;8.52;5.93;;;;;;;;;;4950070;29;20450;-60
2021/03/12 07:09:38;;;;;;;13.25;8.45;;;;;;;;;;4977711;28;20050;-60
2021/03/12 07:12:46;;;;;;;12.88;7.07;;;;;;;;;;4990572;28;20027;-60
2021/03/12 07:15:16;;;;;;;11.88;8.23;;;;;;;;;;5005664;28;20033;-60
2021/03/12 07:17:49;;;;;;;14.18;9.00;;;;;;;;;;5005837;28;20022;-60
2021/03/12 07:20:21;;;;;;;10.23;7.30;;;;;;;;;;4989431;28;20027;-60
2021/03/12 07:22:50;;;;;;;15.57;10.25;;;;;;;;;;5022147;28;20046;-60
2021/03/12 07:25:19;;;;;;;14.23;9.15;;;;;;;;;;5005722;28;20073;-60
2021/03/12 07:27:51;;;;;;;15.75;11.02;;;;;;;;;;4989373;28;20045;-60
2021/03/12 07:30:21;;;;;;;13.30;8.60;;;;;;;;;;5005381;28;20030;-60
2021/03/12 07:32:52;;;;;;;13.23;9.13;;;;;;;;;;5005499;28;20083;-60
2021/03/12 07:35:24;;;;;;;9.88;7.22;;;;;;;;;;5005580;28;20034;-60
2021/03/12 07:38:20;;;;;;;9.77;7.57;;;;;;;;;;4984605;28;20031;-60
2021/03/12 07:41:15;;;;;;;10.20;5.72;;;;;;;;;;4985960;28;20109;-60
2021/03/12 07:44:10;;;;;;;11.40;6.78;;;;;;;;;;5009000;28;20123;-60
2021/03/12 07:46:47;;;;;;;15.07;9.70;;;;;;;;;;5008765;28;20121;-60
2021/03/12 07:49:30;;;;;;;11.25;7.53;;;;;;;;;;5025182;28;20417;-60
2021/03/12 07:52:08;;;;;;;11.13;7.38;;;;;;;;;;4992601;28;20179;-60
2021/03/12 07:54:35;;;;;;;14.02;8.35;;;;;;;;;;4992161;28;20091;-59
2021/03/12 07:57:04;;;;;;;14.20;8.65;;;;;;;;;;4992277;28;20022;-59
2021/03/12 07:59:48;;;;;;;10.32;7.30;;;;;;;;;;4993817;28;20065;-60
2021/03/12 08:02:50;;;;;;;11.90;7.85;;;;;;;;;;4993781;28;20046;-60
2021/03/12 08:05:40;;;;;;;9.38;6.32;;;;;;;;;;4993382;28;20413;-60
2021/03/12 08:08:27;;;;;;;8.23;6.07;;;;;;;;;;5008370;28;20030;-59
2021/03/12 08:11:12;;;;;;;11.85;6.72;;;;;;;;;;4993345;28;20458;-60
2021/03/12 08:13:39;;;;;;;9.35;6.63;;;;;;;;;;4991975;28;20084;-58
2021/03/12 08:16:10;;;;;;;10.43;6.97;;;;;;;;;;4992034;28;20029;-61
2021/03/12 08:18:42;;;;;;;12.52;7.50;;;;;;;;;;4992018;28;20080;-58
2021/03/12 08:21:31;;;;;;;8.88;6.88;;;;;;;;;;4993295;28;20038;-58
2021/03/12 08:24:03;;;;;;;11.88;7.40;;;;;;;;;;4991793;28;20035;-58
2021/03/12 08:26:50;;;;;;;12.68;7.82;;;;;;;;;;5024629;28;20033;-58
2021/03/12 08:29:34;;;;;;;9.85;6.63;;;;;;;;;;4993700;28;20123;-58
2021/03/12 08:32:21;;;;;;;10.15;6.85;;;;;;;;;;4992040;28;20038;-58
2021/03/12 08:35:27;;;;;;;10.88;6.82;;;;;;;;;;4992147;28;20036;-58
2021/03/12 08:38:30;;;;;;;8.85;5.95;;;;;;;;;;4992410;28;20375;-58
2021/03/12 08:41:39;;;;;;;7.88;5.70;;;;;;;;;;4993069;28;20034;-57
2021/03/12 08:44:17;;;;;;;7.70;5.38;;;;;;;;;;5008152;28;20179;-58
2021/03/12 08:47:20;;;;;;;9.80;5.72;;;;;;;;;;4971403;28;20034;-58
2021/03/12 08:49:53;;;;;;;9.13;5.85;;;;;;;;;;4971606;28;20031;-57
2021/03/12 08:52:28;;;;;;;7.72;5.63;;;;;;;;;;4974769;28;20129;-58
2021/03/12 08:55:01;;;;;;;10.65;6.15;;;;;;;;;;5007855;28;20121;-58
2021/03/12 08:57:30;;;;;;;8.82;5.60;;;;;;;;;;5007986;28;20034;-58
2021/03/12 09:00:09;;;;;;;7.60;4.97;;;;;;;;;;5007362;28;20074;-58
2021/03/12 09:02:52;;;;;;;9.05;5.68;;;;;;;;;;4984312;28;20037;-58
2021/03/12 09:05:30;;;;;;;9.38;5.25;;;;;;;;;;4991182;28;20490;-64
2021/03/12 09:08:17;;;;;;;3.67;2.53;;;;;;;;;;4992315;28;20146;-64
2021/03/12 09:11:07;;;;;;;6.65;4.57;;;;;;;;;;4992784;28;20031;-64
2021/03/12 09:13:36;;;;;;;;;;;;;;;;;;4993109;28;20026;-63
2021/03/12 09:16:05;;;;;;;4.20;3.50;;;;;;;;;;4991662;28;19913;-64
2021/03/12 09:18:31;;;;;;;10.65;5.55;;;;;;;;;;5007495;28;20508;-64
2021/03/12 09:20:59;;;;;;;7.88;4.93;;;;;;;;;;4991598;28;20546;-64
2021/03/12 09:23:38;;;;;;;6.45;4.45;;;;;;;;;;4991324;28;20164;-64
2021/03/12 09:26:05;;;;;;;7.50;4.85;;;;;;;;;;5007605;28;20046;-64
2021/03/12 09:28:34;;;;;;;5.38;4.28;;;;;;;;;;5007289;28;20022;-64
2021/03/12 09:31:08;;;;;;;4.43;3.70;;;;;;;;;;4991149;28;20034;-65
2021/03/12 09:33:44;;;;;;;4.97;3.63;;;;;;;;;;5007536;28;20037;-64
2021/03/12 09:36:26;;;;;;;5.90;4.15;;;;;;;;;;4991222;28;20381;-64
2021/03/12 09:38:52;;;;;;;4.85;4.20;;;;;;;;;;5007352;28;20030;-65
2021/03/12 09:41:22;;;;;;;5.78;4.13;;;;;;;;;;4992230;28;20041;-64
2021/03/12 09:44:02;;;;;;;5.00;3.90;;;;;;;;;;5002323;28;20038;-63
2021/03/12 09:46:37;;;;;;;6.35;4.00;;;;;;;;;;5009614;28;20034;-65
2021/03/12 09:49:12;;;;;;;5.90;4.90;;;;;;;;;;5010493;28;20046;-65
2021/03/12 09:51:41;;;;;;;6.32;4.65;;;;;;;;;;5010516;28;20032;-65
2021/03/12 09:54:14;;;;;;;7.45;5.07;;;;;;;;;;5010196;28;20405;-64
2021/03/12 09:56:48;;;;;;;7.53;4.68;;;;;;;;;;5009974;28;20034;-64
2021/03/12 09:59:18;;;;;;;6.60;5.43;;;;;;;;;;5009121;28;20584;-64
2021/03/12 10:01:43;;;;;;;8.02;5.00;;;;;;;;;;5008895;28;20090;-64
2021/03/12 10:04:53;;;;;;;5.72;3.95;;;;;;;;;;5007554;28;20046;-64
2021/03/12 10:07:40;;;;;;;6.50;4.20;;;;;;;;;;5010199;28;20052;-64
2021/03/12 10:10:28;;;;;;;4.65;3.85;;;;;;;;;;5009478;28;20057;-64
2021/03/12 10:12:57;;;;;;;6.30;4.15;;;;;;;;;;5009125;28;20175;-64
2021/03/12 10:15:30;;;;;;;3.25;2.42;;;;;;;;;;5010756;28;20097;-64
2021/03/12 10:18:25;;;;;;;5.10;4.10;;;;;;;;;;5009933;28;20400;-64
2021/03/12 10:20:51;;;;;;;1.73;1.42;;;;;;;;;;5010856;28;20030;-64
2021/03/12 10:23:17;;;;;;;4.80;2.80;;;;;;;;;;5009577;28;20014;-64
2021/03/12 10:25:44;;;;;;;3.67;2.42;;;;;;;;;;5010848;28;20477;-64
2021/03/12 10:28:11;;;;;;;2.25;2.05;;;;;;;;;;5010832;28;20109;-64
2021/03/12 10:30:37;;;;;;;3.05;2.08;;;;;;;;;;5010733;28;20040;-64
2021/03/12 10:33:06;;;;;;;3.35;2.10;;;;;;;;;;5010609;28;20105;-64
2021/03/12 10:35:33;;;;;;;2.30;2.10;;;;;;;;;;5010734;28;20062;-64
2021/03/12 10:38:19;;;;;;;3.50;1.92;;;;;;;;;;5010764;28;20075;-64
2021/03/12 10:40:47;;;;;;;2.60;2.10;;;;;;;;;;5010554;28;20125;-64
2021/03/12 10:43:16;;;;;;;2.17;1.80;;;;;;;;;;5010657;28;20015;-64
2021/03/12 10:45:43;;;;;;;2.53;2.03;;;;;;;;;;5009302;28;20393;-64
2021/03/12 10:48:09;;;;;;;4.40;2.15;;;;;;;;;;5009669;28;20026;-64
2021/03/12 10:50:35;;;;;;;2.13;1.80;;;;;;;;;;5009763;28;20094;-64
2021/03/12 10:53:03;;;;;;;2.20;2.00;;;;;;;;;;5010131;28;20019;-64
2021/03/12 10:55:32;;;;;;;3.45;1.90;;;;;;;;;;5010880;28;20022;-63
2021/03/12 10:57:59;;;;;;;2.15;1.80;;;;;;;;;;5009120;28;20361;-64
2021/03/12 11:00:25;;;;;;;2.60;2.00;;;;;;;;;;5010485;28;20525;-64
2021/03/12 11:02:55;;;;;;;2.50;2.30;;;;;;;;;;5010724;28;20022;-64
2021/03/12 11:05:21;;;;;;;2.33;1.95;;;;;;;;;;5010087;28;20524;-57
2021/03/12 11:07:46;;;;;;;2.03;1.83;;;;;;;;;;5010581;28;20038;-57
2021/03/12 11:10:14;;;;;;;2.28;2.00;;;;;;;;;;5011935;28;20062;-57
2021/03/12 11:12:44;;;;;;;1.55;1.45;;;;;;;;;;5013401;28;20017;-57
2021/03/12 11:15:11;;;;;;;2.50;1.90;;;;;;;;;;5014018;28;20026;-57
2021/03/12 11:17:37;;;;;;;2.60;2.05;;;;;;;;;;5013897;28;20018;-57
2021/03/12 11:20:07;;;;;;;2.17;1.98;;;;;;;;;;5014071;28;20049;-57
2021/03/12 11:22:33;;;;;;;2.42;2.00;;;;;;;;;;5012899;28;20389;-57
2021/03/12 11:25:00;;;;;;;3.08;2.13;;;;;;;;;;5013815;28;20022;-57
2021/03/12 11:27:26;;;;;;;2.72;1.83;;;;;;;;;;5014101;28;20064;-57
2021/03/12 11:29:52;;;;;;;2.40;2.20;;;;;;;;;;5013820;28;20025;-57
2021/03/12 11:32:18;;;;;;;1.45;1.35;;;;;;;;;;5013914;28;20482;-57
2021/03/12 11:34:43;;;;;;;2.00;1.80;;;;;;;;;;5013645;28;20064;-57
2021/03/12 11:37:09;;;;;;;2.03;1.55;;;;;;;;;;5013649;28;20018;-57
2021/03/12 11:39:34;;;;;;;3.83;2.15;;;;;;;;;;5012449;28;20029;-57
2021/03/12 11:42:00;;;;;;;2.28;2.08;;;;;;;;;;5013713;28;20038;-57
2021/03/12 11:44:25;;;;;;;2.90;2.10;;;;;;;;;;5013638;28;20030;-57
2021/03/12 11:46:51;;;;;;;2.40;2.10;;;;;;;;;;4994080;28;20038;-57
2021/03/12 11:49:16;;;;;;;1.85;1.50;;;;;;;;;;4994008;28;20368;-57
2021/03/12 11:51:42;;;;;;;1.90;1.80;;;;;;;;;;4993747;28;20030;-57
2021/03/12 11:54:08;;;;;;;2.65;2.05;;;;;;;;;;4993876;28;20022;-57
2021/03/12 11:56:35;;;;;;;1.80;1.38;;;;;;;;;;4993779;28;20023;-57
2021/03/12 11:59:01;;;;;;;1.73;1.63;;;;;;;;;;4993854;28;20011;-57
2021/03/12 12:01:28;;;;;;;1.67;1.58;;;;;;;;;;4993712;28;20109;-57
2021/03/12 12:03:53;;;;;;;2.45;2.25;;;;;;;;;;4993437;28;20030;-58
2021/03/12 12:06:19;;;;;;;2.25;1.77;;;;;;;;;;4993602;28;20041;-58
2021/03/12 12:08:44;;;;;;;2.25;1.50;;;;;;;;;;4993639;28;20101;-57
2021/03/12 12:11:10;;;;;;;1.88;1.73;;;;;;;;;;4993585;28;20125;-57
2021/03/12 12:13:35;;;;;;;1.30;1.20;;;;;;;;;;4993688;28;20049;-57
2021/03/12 12:16:01;;;;;;;1.60;1.40;;;;;;;;;;5000752;28;20025;-57
2021/03/12 12:18:32;;;;;;;1.48;1.20;;;;;;;;;;5010582;28;20492;-57
2021/03/12 12:20:58;;;;;;;3.83;2.85;;;;;;;;;;5012979;28;20049;-57
2021/03/12 12:23:23;;;;;;;2.13;1.67;;;;;;;;;;4997120;28;20054;-58
2021/03/12 12:25:49;;;;;;;2.22;1.90;;;;;;;;;;4993360;28;20030;-59
2021/03/12 12:28:14;;;;;;;1.40;1.25;;;;;;;;;;5007188;28;20018;-58
2021/03/12 12:30:40;;;;;;;1.70;1.60;;;;;;;;;;5012828;28;20022;-57
2021/03/12 12:33:05;;;;;;;1.55;1.45;;;;;;;;;;5012519;28;20030;-59
2021/03/12 12:35:31;;;;;;;1.50;1.40;;;;;;;;;;5012717;28;20102;-59
2021/03/12 12:37:56;;;;;;;2.20;1.92;;;;;;;;;;5012885;28;20109;-58
2021/03/12 12:40:24;;;;;;;2.03;1.83;;;;;;;;;;5012674;28;20542;-57
2021/03/12 12:42:49;;;;;;;2.72;1.40;;;;;;;;;;5012765;28;20022;-64
2021/03/12 12:45:15;;;;;;;2.35;1.40;;;;;;;;;;5001272;28;20026;-65
2021/03/12 12:47:42;;;;;;;1.88;1.17;;;;;;;;;;4996048;28;20450;-65
2021/03/12 12:50:08;;;;;;;1.55;1.23;;;;;;;;;;4989829;28;20385;-58
2021/03/12 12:52:34;;;;;;;2.20;1.13;;;;;;;;;;4994222;28;20112;-58
2021/03/12 12:55:00;;;;;;;1.88;1.38;;;;;;;;;;5001272;28;20067;-58
2021/03/12 12:57:26;;;;;;;3.10;1.52;;;;;;;;;;5008636;28;20018;-58
2021/03/12 12:59:51;;;;;;;1.67;1.40;;;;;;;;;;5012222;28;20036;-58
2021/03/12 13:02:17;;;;;;;3.53;1.58;;;;;;;;;;5012055;28;20471;-58
2021/03/12 13:04:42;;;;;;;2.92;1.75;;;;;;;;;;5011629;28;20129;-58
2021/03/12 13:07:08;;;;;;;2.28;2.00;;;;;;;;;;5012001;28;20026;-58
2021/03/12 13:09:34;;;;;;;2.88;1.60;;;;;;;;;;5012304;28;20037;-58
2021/03/12 13:12:00;;;;;;;3.25;1.52;;;;;;;;;;5012411;28;20018;-58
2021/03/12 13:14:26;;;;;;;2.03;1.77;;;;;;;;;;5012216;28;20026;-64
2021/03/12 13:16:52;;;;;;;2.95;1.67;;;;;;;;;;5012215;28;20029;-65
2021/03/12 13:19:17;;;;;;;4.00;2.22;;;;;;;;;;5012158;28;20384;-64
2021/03/12 13:21:43;;;;;;;2.15;1.65;;;;;;;;;;5012200;28;20029;-65
2021/03/12 13:24:09;;;;;;;2.85;2.15;;;;;;;;;;5012182;28;20146;-58
2021/03/12 13:26:35;;;;;;;1.92;1.65;;;;;;;;;;5011965;28;20465;-58
2021/03/12 13:29:01;;;;;;;2.38;1.80;;;;;;;;;;5012025;28;20034;-58
2021/03/12 13:31:27;;;;;;;2.28;2.08;;;;;;;;;;5011868;28;20381;-59
2021/03/12 13:33:53;;;;;;;2.97;2.10;;;;;;;;;;5010817;28;20522;-64
2021/03/12 13:36:19;;;;;;;2.90;2.13;;;;;;;;;;5012114;28;20018;-65
2021/03/12 13:38:44;;;;;;;3.35;2.30;;;;;;;;;;5011907;28;20107;-64
2021/03/12 13:41:09;;;;;;;3.80;2.05;;;;;;;;;;5012107;28;20075;-64
2021/03/12 13:43:35;;;;;;;4.13;2.90;;;;;;;;;;5011956;28;20098;-64
2021/03/12 13:46:00;;;;;;;3.13;2.78;;;;;;;;;;5011842;28;20082;-65
2021/03/12 13:48:26;;;;;;;4.50;3.22;;;;;;;;;;5011506;28;20034;-65
2021/03/12 13:50:51;;;;;;;2.75;2.55;;;;;;;;;;5005391;28;20032;-64
2021/03/12 13:53:17;;;;;;;5.65;3.20;;;;;;;;;;5008238;28;20025;-64
2021/03/12 13:55:43;;;;;;;7.05;3.60;;;;;;;;;;5011522;28;20025;-64
2021/03/12 13:58:11;;;;;;;5.85;3.00;;;;;;;;;;5011239;28;20033;-64
2021/03/12 14:00:37;;;;;;;3.78;2.70;;;;;;;;;;5011286;28;20029;-65
2021/03/12 14:03:04;;;;;;;3.88;3.00;;;;;;;;;;5010071;28;20505;-64
2021/03/12 14:05:30;;;;;;;4.57;2.55;;;;;;;;;;5011251;28;20046;-64
2021/03/12 14:07:55;;;;;;;4.50;2.75;;;;;;;;;;5011459;28;20030;-64
2021/03/12 14:10:20;;;;;;;5.55;3.42;;;;;;;;;;5009928;28;20075;-64
2021/03/12 14:12:46;;;;;;;3.88;2.53;;;;;;;;;;5011185;28;20022;-65
2021/03/12 14:15:30;;;;;;;3.55;2.92;;;;;;;;;;5011495;28;20542;-64
2021/03/12 14:18:03;;;;;;;3.92;2.25;;;;;;;;;;5011224;28;20034;-64
2021/03/12 14:20:29;;;;;;;4.00;3.53;;;;;;;;;;5011182;28;20072;-64
2021/03/12 14:22:54;;;;;;;5.93;5.13;;;;;;;;;;5011072;28;20018;-64
2021/03/12 14:25:19;;;;;;;7.38;4.32;;;;;;;;;;5011039;28;20026;-64
2021/03/12 14:28:03;;;;;;;9.15;6.18;;;;;;;;;;5011627;28;20102;-64
2021/03/12 14:30:29;;;;;;;5.65;4.50;;;;;;;;;;5010191;28;20030;-64
2021/03/12 14:32:55;;;;;;;10.50;5.32;;;;;;;;;;5011079;28;20022;-64
2021/03/12 14:35:21;;;;;;;10.25;5.32;;;;;;;;;;5011381;28;20061;-64
2021/03/12 14:37:46;;;;;;;9.00;4.15;;;;;;;;;;5011422;28;20018;-64
2021/03/12 14:40:13;;;;;;;9.20;4.60;;;;;;;;;;5010996;28;20079;-64
2021/03/12 14:42:38;;;;;;;4.60;2.78;;;;;;;;;;5011052;28;20011;-64
2021/03/12 14:45:04;;;;;;;4.47;3.30;;;;;;;;;;5010585;28;20476;-64
2021/03/12 14:47:50;;;;;;;3.88;2.65;;;;;;;;;;5031207;28;20125;-64
2021/03/12 14:50:16;;;;;;;4.50;2.83;;;;;;;;;;5011116;28;20057;-64
2021/03/12 14:52:41;;;;;;;4.68;3.42;;;;;;;;;;5011163;28;20030;-64
2021/03/12 14:55:09;;;;;;;3.85;3.10;;;;;;;;;;5010723;28;20429;-65
2021/03/12 14:57:34;;;;;;;4.53;3.05;;;;;;;;;;5010808;28;20018;-64